sensor_id;sensor_type;location;lat;lon;timestamp;temperature;humidity
23685;DHT22;12020;51.384;6.908;2023-04-12T00:02:13;10.80;99.90
23685;DHT22;12020;51.384;6.908;2023-04-12T00:04:39;10.70;99.90
23685;DHT22;12020;51.384;6.908;2023-04-12T00:07:05;10.80;99.90
23685;DHT22;12020;51.384;6.908;2023-04-12T00:09:34;10.80;99.90
23685;DHT22;12020;51.384;6.908;2023-04-12T00:12:01;10.80;99.90
23685;DHT22;12020;51.384;6.908;2023-04-12T00:14:27;10.80;99.90
23685;DHT22;12020;51.384;6.908;2023-04-12T00:16:54;10.80;99.90
23685;DHT22;12020;51.384;6.908;2023-04-12T00:19:20;10.80;99.90
23685;DHT22;12020;51.384;6.908;2023-04-12T00:21:45;10.80;99.90
23685;DHT22;12020;51.384;6.908;2023-04-12T00:24:11;10.80;99.90
23685;DHT22;12020;51.384;6.908;2023-04-12T00:26:37;10.70;99.90
23685;DHT22;12020;51.384;6.908;2023-04-12T00:29:03;10.70;99.90
23685;DHT22;12020;51.384;6.908;2023-04-12T00:31:28;10.60;99.90
23685;DHT22;12020;51.384;6.908;2023-04-12T00:33:54;10.50;99.90
23685;DHT22;12020;51.384;6.908;2023-04-12T00:36:21;10.50;99.90
23685;DHT22;12020;51.384;6.908;2023-04-12T00:38:46;10.40;99.90
23685;DHT22;12020;51.384;6.908;2023-04-12T00:41:16;10.40;99.90
23685;DHT22;12020;51.384;6.908;2023-04-12T00:43:42;10.40;99.90
23685;DHT22;12020;51.384;6.908;2023-04-12T00:46:08;10.30;99.90
23685;DHT22;12020;51.384;6.908;2023-04-12T00:48:34;10.20;99.90
23685;DHT22;12020;51.384;6.908;2023-04-12T00:51:01;10.10;99.90
23685;DHT22;12020;51.384;6.908;2023-04-12T00:53:28;10.10;99.90
23685;DHT22;12020;51.384;6.908;2023-04-12T00:55:54;10.10;99.90
23685;DHT22;12020;51.384;6.908;2023-04-12T00:58:21;10.00;99.90
23685;DHT22;12020;51.384;6.908;2023-04-12T01:00:48;10.00;99.90
23685;DHT22;12020;51.384;6.908;2023-04-12T01:03:18;9.90;99.90
23685;DHT22;12020;51.384;6.908;2023-04-12T01:05:58;9.90;99.90
23685;DHT22;12020;51.384;6.908;2023-04-12T01:11:04;9.80;99.90
23685;DHT22;12020;51.384;6.908;2023-04-12T01:13:48;9.80;99.90
23685;DHT22;12020;51.384;6.908;2023-04-12T01:18:46;9.70;99.90
23685;DHT22;12020;51.384;6.908;2023-04-12T01:21:21;9.70;99.90
23685;DHT22;12020;51.384;6.908;2023-04-12T01:26:43;9.70;99.90
23685;DHT22;12020;51.384;6.908;2023-04-12T01:29:18;9.60;99.90
23685;DHT22;12020;51.384;6.908;2023-04-12T01:31:56;9.60;99.90
23685;DHT22;12020;51.384;6.908;2023-04-12T01:34:22;9.60;99.90
23685;DHT22;12020;51.384;6.908;2023-04-12T01:36:50;9.60;99.90
23685;DHT22;12020;51.384;6.908;2023-04-12T01:39:17;9.50;99.90
23685;DHT22;12020;51.384;6.908;2023-04-12T01:41:42;9.60;99.90
23685;DHT22;12020;51.384;6.908;2023-04-12T01:44:14;9.60;99.90
23685;DHT22;12020;51.384;6.908;2023-04-12T01:46:41;9.50;99.90
23685;DHT22;12020;51.384;6.908;2023-04-12T01:49:07;9.50;99.90
23685;DHT22;12020;51.384;6.908;2023-04-12T01:51:48;9.50;99.90
23685;DHT22;12020;51.384;6.908;2023-04-12T01:54:24;9.50;99.90
23685;DHT22;12020;51.384;6.908;2023-04-12T01:56:55;9.40;99.90
23685;DHT22;12020;51.384;6.908;2023-04-12T01:59:26;9.40;99.90
23685;DHT22;12020;51.384;6.908;2023-04-12T02:01:52;9.40;99.90
23685;DHT22;12020;51.384;6.908;2023-04-12T02:04:20;9.40;99.90
23685;DHT22;12020;51.384;6.908;2023-04-12T02:06:46;9.40;99.90
23685;DHT22;12020;51.384;6.908;2023-04-12T02:09:12;9.30;99.90
23685;DHT22;12020;51.384;6.908;2023-04-12T02:11:38;9.30;99.90
23685;DHT22;12020;51.384;6.908;2023-04-12T02:14:03;9.20;99.90
23685;DHT22;12020;51.384;6.908;2023-04-12T02:16:30;9.30;99.90
23685;DHT22;12020;51.384;6.908;2023-04-12T02:18:57;9.20;99.90
23685;DHT22;12020;51.384;6.908;2023-04-12T02:21:23;9.20;99.90
23685;DHT22;12020;51.384;6.908;2023-04-12T02:23:49;9.20;99.90
23685;DHT22;12020;51.384;6.908;2023-04-12T02:26:15;9.10;99.90
23685;DHT22;12020;51.384;6.908;2023-04-12T02:28:41;9.10;99.90
23685;DHT22;12020;51.384;6.908;2023-04-12T02:31:07;9.10;99.90
23685;DHT22;12020;51.384;6.908;2023-04-12T02:33:33;9.10;99.90
23685;DHT22;12020;51.384;6.908;2023-04-12T02:35:59;9.10;99.90
23685;DHT22;12020;51.384;6.908;2023-04-12T02:38:27;9.10;99.90
23685;DHT22;12020;51.384;6.908;2023-04-12T02:40:53;9.10;99.90
23685;DHT22;12020;51.384;6.908;2023-04-12T02:43:20;9.00;99.90
23685;DHT22;12020;51.384;6.908;2023-04-12T02:45:46;9.00;99.90
23685;DHT22;12020;51.384;6.908;2023-04-12T02:48:12;9.00;99.90
23685;DHT22;12020;51.384;6.908;2023-04-12T02:50:38;9.00;99.90
23685;DHT22;12020;51.384;6.908;2023-04-12T02:53:03;9.00;99.90
23685;DHT22;12020;51.384;6.908;2023-04-12T02:55:29;9.00;99.90
23685;DHT22;12020;51.384;6.908;2023-04-12T02:57:55;8.90;99.90
23685;DHT22;12020;51.384;6.908;2023-04-12T03:00:22;9.00;99.90
23685;DHT22;12020;51.384;6.908;2023-04-12T03:02:48;9.00;99.90
23685;DHT22;12020;51.384;6.908;2023-04-12T03:05:16;9.00;99.90
23685;DHT22;12020;51.384;6.908;2023-04-12T03:07:42;9.00;99.90
23685;DHT22;12020;51.384;6.908;2023-04-12T03:10:08;8.90;99.90
23685;DHT22;12020;51.384;6.908;2023-04-12T03:12:35;8.90;99.90
23685;DHT22;12020;51.384;6.908;2023-04-12T03:15:01;8.90;99.90
23685;DHT22;12020;51.384;6.908;2023-04-12T03:17:27;8.80;99.90
23685;DHT22;12020;51.384;6.908;2023-04-12T03:19:52;8.80;99.90
23685;DHT22;12020;51.384;6.908;2023-04-12T03:22:18;8.80;99.90
23685;DHT22;12020;51.384;6.908;2023-04-12T03:24:44;8.80;99.90
23685;DHT22;12020;51.384;6.908;2023-04-12T03:27:11;8.80;99.90
23685;DHT22;12020;51.384;6.908;2023-04-12T03:29:36;8.80;99.90
23685;DHT22;12020;51.384;6.908;2023-04-12T03:32:02;8.70;99.90
23685;DHT22;12020;51.384;6.908;2023-04-12T03:34:28;8.70;99.90
23685;DHT22;12020;51.384;6.908;2023-04-12T03:36:59;8.70;99.90
23685;DHT22;12020;51.384;6.908;2023-04-12T03:39:25;8.70;99.90
23685;DHT22;12020;51.384;6.908;2023-04-12T03:41:51;8.80;99.90
23685;DHT22;12020;51.384;6.908;2023-04-12T03:44:18;8.80;99.90
23685;DHT22;12020;51.384;6.908;2023-04-12T03:46:44;8.80;99.90
23685;DHT22;12020;51.384;6.908;2023-04-12T03:49:10;8.80;99.90
23685;DHT22;12020;51.384;6.908;2023-04-12T03:51:36;8.80;99.90
23685;DHT22;12020;51.384;6.908;2023-04-12T03:54:08;8.80;99.90
23685;DHT22;12020;51.384;6.908;2023-04-12T03:56:34;8.80;99.90
23685;DHT22;12020;51.384;6.908;2023-04-12T03:59:00;8.80;99.90
23685;DHT22;12020;51.384;6.908;2023-04-12T04:01:25;8.80;99.90
23685;DHT22;12020;51.384;6.908;2023-04-12T04:03:51;8.80;99.90
23685;DHT22;12020;51.384;6.908;2023-04-12T04:06:17;8.80;99.90
23685;DHT22;12020;51.384;6.908;2023-04-12T04:08:43;8.80;99.90
23685;DHT22;12020;51.384;6.908;2023-04-12T04:11:10;8.80;99.90
23685;DHT22;12020;51.384;6.908;2023-04-12T04:13:36;8.80;99.90
23685;DHT22;12020;51.384;6.908;2023-04-12T04:16:04;8.80;99.90
23685;DHT22;12020;51.384;6.908;2023-04-12T04:18:30;8.80;99.90
23685;DHT22;12020;51.384;6.908;2023-04-12T04:20:57;8.80;99.90
23685;DHT22;12020;51.384;6.908;2023-04-12T04:23:24;8.80;99.90
23685;DHT22;12020;51.384;6.908;2023-04-12T04:25:49;8.80;99.90
23685;DHT22;12020;51.384;6.908;2023-04-12T04:28:17;8.80;99.90
23685;DHT22;12020;51.384;6.908;2023-04-12T04:30:43;8.80;99.90
23685;DHT22;12020;51.384;6.908;2023-04-12T04:33:11;8.80;99.90
23685;DHT22;12020;51.384;6.908;2023-04-12T04:35:40;8.80;99.90
23685;DHT22;12020;51.384;6.908;2023-04-12T04:38:07;8.80;99.90
23685;DHT22;12020;51.384;6.908;2023-04-12T04:40:36;8.80;99.90
23685;DHT22;12020;51.384;6.908;2023-04-12T04:43:02;8.80;99.90
23685;DHT22;12020;51.384;6.908;2023-04-12T04:45:28;8.80;99.90
23685;DHT22;12020;51.384;6.908;2023-04-12T04:47:55;8.80;99.90
23685;DHT22;12020;51.384;6.908;2023-04-12T04:50:23;8.80;99.90
23685;DHT22;12020;51.384;6.908;2023-04-12T04:52:50;8.90;99.90
23685;DHT22;12020;51.384;6.908;2023-04-12T04:55:16;8.80;99.90
23685;DHT22;12020;51.384;6.908;2023-04-12T04:57:42;8.80;99.90
23685;DHT22;12020;51.384;6.908;2023-04-12T05:00:09;8.80;99.90
23685;DHT22;12020;51.384;6.908;2023-04-12T05:02:40;8.80;99.90
23685;DHT22;12020;51.384;6.908;2023-04-12T05:05:11;8.80;99.90
23685;DHT22;12020;51.384;6.908;2023-04-12T05:07:38;8.80;99.90
23685;DHT22;12020;51.384;6.908;2023-04-12T05:10:05;8.80;99.90
23685;DHT22;12020;51.384;6.908;2023-04-12T05:12:31;8.80;99.90
23685;DHT22;12020;51.384;6.908;2023-04-12T05:14:57;8.90;99.90
23685;DHT22;12020;51.384;6.908;2023-04-12T05:17:23;8.90;99.90
23685;DHT22;12020;51.384;6.908;2023-04-12T05:19:48;8.90;99.90
23685;DHT22;12020;51.384;6.908;2023-04-12T05:22:14;8.90;99.90
23685;DHT22;12020;51.384;6.908;2023-04-12T05:24:44;8.80;99.90
23685;DHT22;12020;51.384;6.908;2023-04-12T05:27:10;8.80;99.90
23685;DHT22;12020;51.384;6.908;2023-04-12T05:29:36;8.80;99.90
23685;DHT22;12020;51.384;6.908;2023-04-12T05:32:02;8.80;99.90
23685;DHT22;12020;51.384;6.908;2023-04-12T05:34:27;8.70;99.90
23685;DHT22;12020;51.384;6.908;2023-04-12T05:36:53;8.70;99.90
23685;DHT22;12020;51.384;6.908;2023-04-12T05:39:18;8.70;99.90
23685;DHT22;12020;51.384;6.908;2023-04-12T05:41:44;8.70;99.90
23685;DHT22;12020;51.384;6.908;2023-04-12T05:44:10;8.70;99.90
23685;DHT22;12020;51.384;6.908;2023-04-12T05:46:36;8.70;99.90
23685;DHT22;12020;51.384;6.908;2023-04-12T05:49:02;8.70;99.90
23685;DHT22;12020;51.384;6.908;2023-04-12T05:51:27;8.70;99.90
23685;DHT22;12020;51.384;6.908;2023-04-12T05:53:53;8.60;99.90
23685;DHT22;12020;51.384;6.908;2023-04-12T05:56:19;8.60;99.90
23685;DHT22;12020;51.384;6.908;2023-04-12T05:58:45;8.60;99.90
23685;DHT22;12020;51.384;6.908;2023-04-12T06:01:11;8.60;99.90
23685;DHT22;12020;51.384;6.908;2023-04-12T06:03:37;8.60;99.90
23685;DHT22;12020;51.384;6.908;2023-04-12T06:06:06;8.60;99.90
23685;DHT22;12020;51.384;6.908;2023-04-12T06:08:32;8.60;99.90
23685;DHT22;12020;51.384;6.908;2023-04-12T06:10:58;8.60;99.90
23685;DHT22;12020;51.384;6.908;2023-04-12T06:13:24;8.60;99.90
23685;DHT22;12020;51.384;6.908;2023-04-12T06:15:49;8.60;99.90
23685;DHT22;12020;51.384;6.908;2023-04-12T06:18:15;8.60;99.90
23685;DHT22;12020;51.384;6.908;2023-04-12T06:20:41;8.60;99.90
23685;DHT22;12020;51.384;6.908;2023-04-12T06:23:06;8.60;99.90
23685;DHT22;12020;51.384;6.908;2023-04-12T06:25:32;8.60;99.90
23685;DHT22;12020;51.384;6.908;2023-04-12T06:27:58;8.60;99.90
23685;DHT22;12020;51.384;6.908;2023-04-12T06:30:24;8.60;99.90
23685;DHT22;12020;51.384;6.908;2023-04-12T06:32:49;8.60;99.90
23685;DHT22;12020;51.384;6.908;2023-04-12T06:35:15;8.70;99.90
23685;DHT22;12020;51.384;6.908;2023-04-12T06:37:41;8.70;99.90
23685;DHT22;12020;51.384;6.908;2023-04-12T06:40:07;8.70;99.90
23685;DHT22;12020;51.384;6.908;2023-04-12T06:42:34;8.70;99.90
23685;DHT22;12020;51.384;6.908;2023-04-12T06:45:00;8.80;99.90
23685;DHT22;12020;51.384;6.908;2023-04-12T06:47:26;8.80;99.90
23685;DHT22;12020;51.384;6.908;2023-04-12T06:49:52;8.80;99.90
23685;DHT22;12020;51.384;6.908;2023-04-12T06:52:25;8.80;99.90
23685;DHT22;12020;51.384;6.908;2023-04-12T06:54:51;8.80;99.90
23685;DHT22;12020;51.384;6.908;2023-04-12T06:57:17;8.80;99.90
23685;DHT22;12020;51.384;6.908;2023-04-12T06:59:43;8.80;99.90
23685;DHT22;12020;51.384;6.908;2023-04-12T07:02:08;8.80;99.90
23685;DHT22;12020;51.384;6.908;2023-04-12T07:04:34;8.80;99.90
23685;DHT22;12020;51.384;6.908;2023-04-12T07:07:00;8.80;99.90
23685;DHT22;12020;51.384;6.908;2023-04-12T07:09:26;8.80;99.90
23685;DHT22;12020;51.384;6.908;2023-04-12T07:11:51;8.90;99.90
23685;DHT22;12020;51.384;6.908;2023-04-12T07:14:17;8.90;99.90
23685;DHT22;12020;51.384;6.908;2023-04-12T07:16:43;8.90;99.90
23685;DHT22;12020;51.384;6.908;2023-04-12T07:19:08;8.90;99.90
23685;DHT22;12020;51.384;6.908;2023-04-12T07:21:34;9.00;99.90
23685;DHT22;12020;51.384;6.908;2023-04-12T07:24:00;9.00;99.90
23685;DHT22;12020;51.384;6.908;2023-04-12T07:26:26;9.00;99.90
23685;DHT22;12020;51.384;6.908;2023-04-12T07:28:51;9.00;99.90
23685;DHT22;12020;51.384;6.908;2023-04-12T07:31:17;9.00;99.90
23685;DHT22;12020;51.384;6.908;2023-04-12T07:33:43;9.10;99.90
23685;DHT22;12020;51.384;6.908;2023-04-12T07:36:09;9.20;99.90
23685;DHT22;12020;51.384;6.908;2023-04-12T07:38:35;9.20;99.90
23685;DHT22;12020;51.384;6.908;2023-04-12T07:41:02;9.20;99.90
23685;DHT22;12020;51.384;6.908;2023-04-12T07:43:27;9.30;99.90
23685;DHT22;12020;51.384;6.908;2023-04-12T07:45:54;9.30;99.90
23685;DHT22;12020;51.384;6.908;2023-04-12T07:48:20;9.30;99.90
23685;DHT22;12020;51.384;6.908;2023-04-12T07:50:46;9.40;99.90
23685;DHT22;12020;51.384;6.908;2023-04-12T07:53:22;9.40;99.90
23685;DHT22;12020;51.384;6.908;2023-04-12T07:55:48;9.50;99.90
23685;DHT22;12020;51.384;6.908;2023-04-12T07:58:15;9.50;99.90
23685;DHT22;12020;51.384;6.908;2023-04-12T08:00:42;9.50;99.90
23685;DHT22;12020;51.384;6.908;2023-04-12T08:03:07;9.40;99.90
23685;DHT22;12020;51.384;6.908;2023-04-12T08:05:33;9.40;99.90
23685;DHT22;12020;51.384;6.908;2023-04-12T08:07:59;9.40;99.90
23685;DHT22;12020;51.384;6.908;2023-04-12T08:10:25;9.40;99.90
23685;DHT22;12020;51.384;6.908;2023-04-12T08:12:50;9.40;99.90
23685;DHT22;12020;51.384;6.908;2023-04-12T08:15:16;9.40;99.90
23685;DHT22;12020;51.384;6.908;2023-04-12T08:17:42;9.40;99.90
23685;DHT22;12020;51.384;6.908;2023-04-12T08:20:08;9.30;99.90
23685;DHT22;12020;51.384;6.908;2023-04-12T08:22:34;9.30;99.90
23685;DHT22;12020;51.384;6.908;2023-04-12T08:25:00;9.30;99.90
23685;DHT22;12020;51.384;6.908;2023-04-12T08:27:28;9.40;99.90
23685;DHT22;12020;51.384;6.908;2023-04-12T08:29:54;9.40;99.90
23685;DHT22;12020;51.384;6.908;2023-04-12T08:32:20;9.50;99.90
23685;DHT22;12020;51.384;6.908;2023-04-12T08:34:46;9.50;99.90
23685;DHT22;12020;51.384;6.908;2023-04-12T08:37:11;9.60;99.90
23685;DHT22;12020;51.384;6.908;2023-04-12T08:39:37;9.70;99.90
23685;DHT22;12020;51.384;6.908;2023-04-12T08:42:03;9.70;99.90
23685;DHT22;12020;51.384;6.908;2023-04-12T08:44:47;9.80;99.90
23685;DHT22;12020;51.384;6.908;2023-04-12T08:47:16;9.80;99.90
23685;DHT22;12020;51.384;6.908;2023-04-12T08:49:42;9.80;99.90
23685;DHT22;12020;51.384;6.908;2023-04-12T08:52:09;9.90;99.90
23685;DHT22;12020;51.384;6.908;2023-04-12T08:54:35;9.90;99.90
23685;DHT22;12020;51.384;6.908;2023-04-12T08:57:03;9.90;99.90
23685;DHT22;12020;51.384;6.908;2023-04-12T08:59:31;9.90;99.90
23685;DHT22;12020;51.384;6.908;2023-04-12T09:01:58;9.90;99.90
23685;DHT22;12020;51.384;6.908;2023-04-12T09:04:24;9.90;99.90
23685;DHT22;12020;51.384;6.908;2023-04-12T09:06:54;9.90;99.90
23685;DHT22;12020;51.384;6.908;2023-04-12T09:09:42;9.90;99.90
23685;DHT22;12020;51.384;6.908;2023-04-12T09:12:09;9.90;99.90
23685;DHT22;12020;51.384;6.908;2023-04-12T09:14:36;9.90;99.90
23685;DHT22;12020;51.384;6.908;2023-04-12T09:17:02;9.90;99.90
23685;DHT22;12020;51.384;6.908;2023-04-12T09:19:35;9.90;99.90
23685;DHT22;12020;51.384;6.908;2023-04-12T09:22:01;9.90;99.90
23685;DHT22;12020;51.384;6.908;2023-04-12T09:24:28;9.90;99.90
23685;DHT22;12020;51.384;6.908;2023-04-12T09:27:05;9.90;99.90
23685;DHT22;12020;51.384;6.908;2023-04-12T09:29:32;10.00;99.90
23685;DHT22;12020;51.384;6.908;2023-04-12T09:32:02;10.10;99.90
23685;DHT22;12020;51.384;6.908;2023-04-12T09:34:29;10.20;99.90
23685;DHT22;12020;51.384;6.908;2023-04-12T09:36:56;10.20;99.90
23685;DHT22;12020;51.384;6.908;2023-04-12T09:39:30;10.20;99.90
23685;DHT22;12020;51.384;6.908;2023-04-12T09:42:07;10.30;99.90
23685;DHT22;12020;51.384;6.908;2023-04-12T09:44:33;10.30;99.90
23685;DHT22;12020;51.384;6.908;2023-04-12T09:47:02;10.40;99.90
23685;DHT22;12020;51.384;6.908;2023-04-12T09:49:40;10.40;99.90
23685;DHT22;12020;51.384;6.908;2023-04-12T09:52:07;10.50;99.90
23685;DHT22;12020;51.384;6.908;2023-04-12T09:54:41;10.50;99.90
23685;DHT22;12020;51.384;6.908;2023-04-12T09:57:08;10.50;99.90
23685;DHT22;12020;51.384;6.908;2023-04-12T09:59:39;10.60;99.90
23685;DHT22;12020;51.384;6.908;2023-04-12T10:02:18;10.70;99.90
23685;DHT22;12020;51.384;6.908;2023-04-12T10:04:46;10.80;99.90
23685;DHT22;12020;51.384;6.908;2023-04-12T10:07:12;11.00;99.90
23685;DHT22;12020;51.384;6.908;2023-04-12T10:09:39;11.10;99.90
23685;DHT22;12020;51.384;6.908;2023-04-12T10:12:06;11.30;99.90
23685;DHT22;12020;51.384;6.908;2023-04-12T10:14:32;11.30;99.90
23685;DHT22;12020;51.384;6.908;2023-04-12T10:16:59;11.30;99.90
23685;DHT22;12020;51.384;6.908;2023-04-12T10:19:27;11.30;99.90
23685;DHT22;12020;51.384;6.908;2023-04-12T10:21:57;11.30;99.90
23685;DHT22;12020;51.384;6.908;2023-04-12T10:24:23;11.30;99.90
23685;DHT22;12020;51.384;6.908;2023-04-12T10:26:51;11.30;99.90
23685;DHT22;12020;51.384;6.908;2023-04-12T10:31:50;11.30;99.90
23685;DHT22;12020;51.384;6.908;2023-04-12T10:34:16;11.30;99.90
23685;DHT22;12020;51.384;6.908;2023-04-12T10:36:53;11.30;99.90
23685;DHT22;12020;51.384;6.908;2023-04-12T10:39:43;11.40;99.90
23685;DHT22;12020;51.384;6.908;2023-04-12T10:42:27;11.40;99.90
23685;DHT22;12020;51.384;6.908;2023-04-12T10:44:55;11.50;99.90
23685;DHT22;12020;51.384;6.908;2023-04-12T10:50:23;11.60;99.90
23685;DHT22;12020;51.384;6.908;2023-04-12T10:55:40;11.70;99.90
23685;DHT22;12020;51.384;6.908;2023-04-12T11:01:13;11.70;99.90
23685;DHT22;12020;51.384;6.908;2023-04-12T11:06:53;11.70;99.90
23685;DHT22;12020;51.384;6.908;2023-04-12T11:09:49;11.60;99.90
23685;DHT22;12020;51.384;6.908;2023-04-12T11:12:15;11.60;99.90
23685;DHT22;12020;51.384;6.908;2023-04-12T11:14:46;11.50;99.90
23685;DHT22;12020;51.384;6.908;2023-04-12T11:22:17;11.30;99.90
23685;DHT22;12020;51.384;6.908;2023-04-12T11:24:48;11.20;99.90
23685;DHT22;12020;51.384;6.908;2023-04-12T11:27:15;11.20;99.90
23685;DHT22;12020;51.384;6.908;2023-04-12T11:29:41;11.20;99.90
23685;DHT22;12020;51.384;6.908;2023-04-12T11:32:11;11.20;99.90
23685;DHT22;12020;51.384;6.908;2023-04-12T11:34:41;11.20;99.90
23685;DHT22;12020;51.384;6.908;2023-04-12T11:37:08;11.30;99.90
23685;DHT22;12020;51.384;6.908;2023-04-12T11:39:38;11.40;99.90
23685;DHT22;12020;51.384;6.908;2023-04-12T11:42:04;11.50;99.90
23685;DHT22;12020;51.384;6.908;2023-04-12T11:44:34;11.60;99.90
23685;DHT22;12020;51.384;6.908;2023-04-12T11:47:00;11.70;99.90
23685;DHT22;12020;51.384;6.908;2023-04-12T11:49:26;11.70;99.90
23685;DHT22;12020;51.384;6.908;2023-04-12T11:52:03;11.70;99.90
23685;DHT22;12020;51.384;6.908;2023-04-12T11:54:29;11.70;99.90
23685;DHT22;12020;51.384;6.908;2023-04-12T11:56:56;11.70;99.90
23685;DHT22;12020;51.384;6.908;2023-04-12T11:59:30;11.90;99.90
23685;DHT22;12020;51.384;6.908;2023-04-12T12:01:58;12.00;99.90
23685;DHT22;12020;51.384;6.908;2023-04-12T12:04:24;12.20;99.90
23685;DHT22;12020;51.384;6.908;2023-04-12T12:06:51;12.40;99.90
23685;DHT22;12020;51.384;6.908;2023-04-12T12:09:16;12.60;99.90
23685;DHT22;12020;51.384;6.908;2023-04-12T12:11:42;12.80;99.90
23685;DHT22;12020;51.384;6.908;2023-04-12T12:14:08;12.90;99.90
23685;DHT22;12020;51.384;6.908;2023-04-12T12:16:34;13.00;99.90
23685;DHT22;12020;51.384;6.908;2023-04-12T12:19:02;13.00;99.90
23685;DHT22;12020;51.384;6.908;2023-04-12T12:21:29;13.00;99.90
23685;DHT22;12020;51.384;6.908;2023-04-12T12:23:55;12.90;99.90
23685;DHT22;12020;51.384;6.908;2023-04-12T12:26:24;12.90;99.90
23685;DHT22;12020;51.384;6.908;2023-04-12T12:28:55;12.80;99.90
23685;DHT22;12020;51.384;6.908;2023-04-12T12:31:23;12.90;99.90
23685;DHT22;12020;51.384;6.908;2023-04-12T12:33:56;13.00;99.90
23685;DHT22;12020;51.384;6.908;2023-04-12T12:36:33;13.00;99.90
23685;DHT22;12020;51.384;6.908;2023-04-12T12:39:08;13.10;99.90
23685;DHT22;12020;51.384;6.908;2023-04-12T12:41:40;13.20;99.90
23685;DHT22;12020;51.384;6.908;2023-04-12T12:44:06;13.30;99.90
23685;DHT22;12020;51.384;6.908;2023-04-12T12:46:32;13.30;99.90
23685;DHT22;12020;51.384;6.908;2023-04-12T12:48:58;13.40;99.90
23685;DHT22;12020;51.384;6.908;2023-04-12T12:51:24;13.50;99.90
23685;DHT22;12020;51.384;6.908;2023-04-12T12:53:51;13.50;99.90
23685;DHT22;12020;51.384;6.908;2023-04-12T12:56:18;13.60;99.90
23685;DHT22;12020;51.384;6.908;2023-04-12T12:58:45;13.60;99.90
23685;DHT22;12020;51.384;6.908;2023-04-12T13:01:12;13.70;99.90
23685;DHT22;12020;51.384;6.908;2023-04-12T13:03:38;13.70;99.90
23685;DHT22;12020;51.384;6.908;2023-04-12T13:06:04;13.70;99.90
23685;DHT22;12020;51.384;6.908;2023-04-12T13:08:33;13.80;99.90
23685;DHT22;12020;51.384;6.908;2023-04-12T13:11:03;13.80;99.90
23685;DHT22;12020;51.384;6.908;2023-04-12T13:13:28;13.80;99.90
23685;DHT22;12020;51.384;6.908;2023-04-12T13:15:55;13.80;99.90
23685;DHT22;12020;51.384;6.908;2023-04-12T13:18:21;13.80;99.90
23685;DHT22;12020;51.384;6.908;2023-04-12T13:20:48;13.80;99.90
23685;DHT22;12020;51.384;6.908;2023-04-12T13:23:14;13.80;99.90
23685;DHT22;12020;51.384;6.908;2023-04-12T13:25:42;14.00;99.90
23685;DHT22;12020;51.384;6.908;2023-04-12T13:28:10;14.00;99.90
23685;DHT22;12020;51.384;6.908;2023-04-12T13:30:37;14.00;99.90
23685;DHT22;12020;51.384;6.908;2023-04-12T13:33:03;14.00;99.90
23685;DHT22;12020;51.384;6.908;2023-04-12T13:35:28;14.00;99.90
23685;DHT22;12020;51.384;6.908;2023-04-12T13:37:54;14.10;99.90
23685;DHT22;12020;51.384;6.908;2023-04-12T13:40:20;14.10;99.90
23685;DHT22;12020;51.384;6.908;2023-04-12T13:42:46;14.30;99.90
23685;DHT22;12020;51.384;6.908;2023-04-12T13:45:11;14.30;99.90
23685;DHT22;12020;51.384;6.908;2023-04-12T13:47:37;14.30;99.90
23685;DHT22;12020;51.384;6.908;2023-04-12T13:50:05;14.20;99.90
23685;DHT22;12020;51.384;6.908;2023-04-12T13:52:31;14.20;99.90
23685;DHT22;12020;51.384;6.908;2023-04-12T13:54:56;14.10;99.90
23685;DHT22;12020;51.384;6.908;2023-04-12T13:57:24;14.10;99.90
23685;DHT22;12020;51.384;6.908;2023-04-12T13:59:49;14.00;99.90
23685;DHT22;12020;51.384;6.908;2023-04-12T14:02:15;13.80;99.90
23685;DHT22;12020;51.384;6.908;2023-04-12T14:04:51;13.60;99.90
23685;DHT22;12020;51.384;6.908;2023-04-12T14:07:17;13.50;99.90
23685;DHT22;12020;51.384;6.908;2023-04-12T14:09:43;13.30;99.90
23685;DHT22;12020;51.384;6.908;2023-04-12T14:12:09;13.10;99.90
23685;DHT22;12020;51.384;6.908;2023-04-12T14:14:34;12.90;99.90
23685;DHT22;12020;51.384;6.908;2023-04-12T14:17:00;12.50;99.90
23685;DHT22;12020;51.384;6.908;2023-04-12T14:19:26;12.10;99.90
23685;DHT22;12020;51.384;6.908;2023-04-12T14:21:52;11.90;99.90
23685;DHT22;12020;51.384;6.908;2023-04-12T14:24:19;11.70;99.90
23685;DHT22;12020;51.384;6.908;2023-04-12T14:26:45;11.60;99.90
23685;DHT22;12020;51.384;6.908;2023-04-12T14:29:11;11.50;99.90
23685;DHT22;12020;51.384;6.908;2023-04-12T14:31:38;11.40;99.90
23685;DHT22;12020;51.384;6.908;2023-04-12T14:34:04;11.40;99.90
23685;DHT22;12020;51.384;6.908;2023-04-12T14:36:36;11.30;99.90
23685;DHT22;12020;51.384;6.908;2023-04-12T14:39:03;11.30;99.90
23685;DHT22;12020;51.384;6.908;2023-04-12T14:41:30;11.30;99.90
23685;DHT22;12020;51.384;6.908;2023-04-12T14:43:58;11.30;99.90
23685;DHT22;12020;51.384;6.908;2023-04-12T14:46:24;11.40;99.90
23685;DHT22;12020;51.384;6.908;2023-04-12T14:48:52;11.50;99.90
23685;DHT22;12020;51.384;6.908;2023-04-12T14:51:17;11.60;99.90
23685;DHT22;12020;51.384;6.908;2023-04-12T14:53:43;11.70;99.90
23685;DHT22;12020;51.384;6.908;2023-04-12T14:56:22;11.80;99.90
23685;DHT22;12020;51.384;6.908;2023-04-12T14:58:50;11.80;99.90
23685;DHT22;12020;51.384;6.908;2023-04-12T15:01:19;11.70;99.90
23685;DHT22;12020;51.384;6.908;2023-04-12T15:03:44;11.70;99.90
23685;DHT22;12020;51.384;6.908;2023-04-12T15:06:11;11.70;99.90
23685;DHT22;12020;51.384;6.908;2023-04-12T15:08:39;11.70;99.90
23685;DHT22;12020;51.384;6.908;2023-04-12T15:11:11;11.50;99.90
23685;DHT22;12020;51.384;6.908;2023-04-12T15:13:40;11.40;99.90
23685;DHT22;12020;51.384;6.908;2023-04-12T15:16:07;11.20;99.90
23685;DHT22;12020;51.384;6.908;2023-04-12T15:18:34;11.00;99.90
23685;DHT22;12020;51.384;6.908;2023-04-12T15:21:09;10.90;99.90
23685;DHT22;12020;51.384;6.908;2023-04-12T15:23:35;10.60;99.90
23685;DHT22;12020;51.384;6.908;2023-04-12T15:26:01;10.40;99.90
23685;DHT22;12020;51.384;6.908;2023-04-12T15:28:27;10.30;99.90
23685;DHT22;12020;51.384;6.908;2023-04-12T15:30:54;10.20;99.90
23685;DHT22;12020;51.384;6.908;2023-04-12T15:33:20;10.20;99.90
23685;DHT22;12020;51.384;6.908;2023-04-12T15:35:47;10.20;99.90
23685;DHT22;12020;51.384;6.908;2023-04-12T15:38:12;10.40;99.90
23685;DHT22;12020;51.384;6.908;2023-04-12T15:40:38;10.50;99.90
23685;DHT22;12020;51.384;6.908;2023-04-12T15:43:03;10.60;99.90
23685;DHT22;12020;51.384;6.908;2023-04-12T15:45:29;10.50;99.90
23685;DHT22;12020;51.384;6.908;2023-04-12T15:47:55;10.40;99.90
23685;DHT22;12020;51.384;6.908;2023-04-12T15:50:21;10.40;99.90
23685;DHT22;12020;51.384;6.908;2023-04-12T15:52:46;10.50;99.90
23685;DHT22;12020;51.384;6.908;2023-04-12T15:55:13;10.50;99.90
23685;DHT22;12020;51.384;6.908;2023-04-12T15:57:42;10.50;99.90
23685;DHT22;12020;51.384;6.908;2023-04-12T16:00:08;10.50;99.90
23685;DHT22;12020;51.384;6.908;2023-04-12T16:02:53;10.50;99.90
23685;DHT22;12020;51.384;6.908;2023-04-12T16:05:20;10.60;99.90
23685;DHT22;12020;51.384;6.908;2023-04-12T16:07:46;10.60;99.90
23685;DHT22;12020;51.384;6.908;2023-04-12T16:10:19;10.60;99.90